createdAt,value
2022-10-26T00:00:23.639Z,2.30
2022-10-26T00:02:26.461Z,2.40
2022-10-26T00:04:29.090Z,2.38
2022-10-26T00:06:31.692Z,2.30
2022-10-26T00:08:34.685Z,2.20
2022-10-26T00:10:39.859Z,2.92
2022-10-26T00:12:42.440Z,2.58
2022-10-26T00:14:45.062Z,2.40
2022-10-26T00:16:47.657Z,2.10
2022-10-26T00:18:50.699Z,2.30
2022-10-26T00:20:53.352Z,2.60
2022-10-26T00:22:55.977Z,2.30
2022-10-26T00:24:58.564Z,2.60
2022-10-26T00:27:02.471Z,2.50
2022-10-26T00:29:05.480Z,2.60
2022-10-26T00:31:12.699Z,2.67
2022-10-26T00:33:15.395Z,3.08
2022-10-26T00:35:28.854Z,2.70
2022-10-26T00:37:40.630Z,2.25
2022-10-26T00:39:43.240Z,2.20
2022-10-26T00:41:46.014Z,2.63
2022-10-26T00:43:50.958Z,2.20
2022-10-26T00:45:56.398Z,2.67
2022-10-26T00:48:02.636Z,2.47
2022-10-26T00:50:10.188Z,2.60
2022-10-26T00:52:13.389Z,2.40
2022-10-26T00:54:18.961Z,2.60
2022-10-26T00:56:22.004Z,2.30
2022-10-26T00:58:26.000Z,2.25
2022-10-26T01:00:29.911Z,2.25
2022-10-26T01:02:32.545Z,2.40
2022-10-26T01:04:35.487Z,2.38
2022-10-26T01:06:39.245Z,2.10
2022-10-26T01:08:43.966Z,3.38
2022-10-26T01:10:46.770Z,2.22
2022-10-26T01:12:50.123Z,2.20
2022-10-26T01:14:53.022Z,2.53
2022-10-26T01:17:07.136Z,2.30
2022-10-26T01:19:31.987Z,2.30
2022-10-26T01:21:52.584Z,2.20
2022-10-26T01:24:30.774Z,2.00
2022-10-26T01:26:48.174Z,2.35
2022-10-26T01:29:15.435Z,2.10
2022-10-26T01:31:29.402Z,2.33
2022-10-26T01:33:38.871Z,2.00
2022-10-26T01:35:51.124Z,2.10
2022-10-26T01:37:58.899Z,1.70
2022-10-26T01:40:09.993Z,2.00
2022-10-26T01:42:16.395Z,1.83
2022-10-26T01:44:25.898Z,1.90
2022-10-26T01:46:36.049Z,2.03
2022-10-26T01:48:40.859Z,1.63
2022-10-26T01:50:46.237Z,1.90
2022-10-26T01:52:50.556Z,1.67
2022-10-26T01:54:53.285Z,1.75
2022-10-26T01:57:01.038Z,1.95
2022-10-26T01:59:20.328Z,1.90
2022-10-26T02:01:42.541Z,1.58
2022-10-26T02:03:51.814Z,1.92
2022-10-26T02:06:07.429Z,2.15
2022-10-26T02:08:27.513Z,1.92
2022-10-26T02:10:39.336Z,1.80
2022-10-26T02:12:50.265Z,1.98
2022-10-26T02:15:01.769Z,2.00
2022-10-26T02:17:09.856Z,1.77
2022-10-26T02:19:27.122Z,2.13
2022-10-26T02:21:36.750Z,1.77
2022-10-26T02:23:43.206Z,2.30
2022-10-26T02:25:50.027Z,2.10
2022-10-26T02:27:56.694Z,2.05
2022-10-26T02:32:03.805Z,1.90
2022-10-26T02:34:12.183Z,2.00
2022-10-26T02:36:19.956Z,2.00
2022-10-26T02:38:25.373Z,2.20
2022-10-26T02:40:30.203Z,2.20
2022-10-26T02:42:34.293Z,2.42
2022-10-26T02:44:41.138Z,2.85
2022-10-26T02:46:44.891Z,2.50
2022-10-26T02:48:47.744Z,2.55
2022-10-26T02:51:01.807Z,2.42
2022-10-26T02:53:11.532Z,2.35
2022-10-26T02:55:19.971Z,2.83
2022-10-26T02:57:28.745Z,2.70
2022-10-26T02:59:36.299Z,2.97
2022-10-26T03:01:40.037Z,2.58
2022-10-26T03:03:42.810Z,2.35
2022-10-26T03:05:45.485Z,2.90
2022-10-26T03:07:49.645Z,3.38
2022-10-26T03:09:52.674Z,2.83
2022-10-26T03:11:55.402Z,2.53
2022-10-26T03:13:58.243Z,2.97
2022-10-26T03:16:00.842Z,3.25
2022-10-26T03:18:03.560Z,3.20
2022-10-26T03:20:07.226Z,3.30
2022-10-26T03:22:09.866Z,3.10
2022-10-26T03:24:13.811Z,2.80
2022-10-26T03:26:16.438Z,2.65
2022-10-26T03:28:19.045Z,2.67
2022-10-26T03:30:21.664Z,2.53
2022-10-26T03:32:28.083Z,3.25
2022-10-26T03:34:31.283Z,2.50
2022-10-26T03:36:34.006Z,2.40
2022-10-26T03:38:36.632Z,2.55
2022-10-26T03:40:42.151Z,2.20
2022-10-26T03:42:44.724Z,2.53
2022-10-26T03:44:48.277Z,2.05
2022-10-26T03:46:50.921Z,2.30
2022-10-26T03:48:53.597Z,2.10
2022-10-26T03:50:59.253Z,2.17
2022-10-26T03:53:01.831Z,2.22
2022-10-26T03:55:04.779Z,2.20
2022-10-26T03:57:08.727Z,2.58
2022-10-26T03:59:11.320Z,2.10
2022-10-26T04:01:13.977Z,1.80
2022-10-26T04:03:16.732Z,1.80
2022-10-26T04:05:19.341Z,1.90
2022-10-26T04:07:21.965Z,2.03
2022-10-26T04:09:24.736Z,2.53
2022-10-26T04:11:27.339Z,2.08
2022-10-26T04:13:31.298Z,1.90
2022-10-26T04:15:33.911Z,2.08
2022-10-26T04:17:36.512Z,1.98
2022-10-26T04:19:39.117Z,2.10
2022-10-26T04:21:41.748Z,1.90
2022-10-26T04:23:44.396Z,2.03
2022-10-26T04:25:47.778Z,2.05
2022-10-26T04:27:50.645Z,2.28
2022-10-26T04:29:54.836Z,2.20
2022-10-26T04:31:57.426Z,2.10
2022-10-26T04:34:00.035Z,2.28
2022-10-26T04:36:02.747Z,2.30
2022-10-26T04:38:07.124Z,1.95
2022-10-26T04:40:10.605Z,2.17
2022-10-26T04:42:13.175Z,2.15
2022-10-26T04:44:15.829Z,2.25
2022-10-26T04:46:19.786Z,2.53
2022-10-26T04:48:22.470Z,2.28
2022-10-26T04:50:27.651Z,2.20
2022-10-26T04:52:31.029Z,2.15
2022-10-26T04:54:33.608Z,2.50
2022-10-26T04:56:36.275Z,2.03
2022-10-26T04:58:39.017Z,2.38
2022-10-26T05:00:41.626Z,2.20
2022-10-26T05:02:45.599Z,2.45
2022-10-26T05:04:48.866Z,2.25
2022-10-26T05:06:53.647Z,2.63
2022-10-26T05:08:56.250Z,2.58
2022-10-26T05:10:58.928Z,2.40
2022-10-26T05:13:02.138Z,2.20
2022-10-26T05:15:07.843Z,2.17
2022-10-26T05:19:15.097Z,1.90
2022-10-26T05:21:19.614Z,2.10
2022-10-26T05:23:22.761Z,1.88
2022-10-26T05:25:25.461Z,2.10
2022-10-26T05:27:28.083Z,1.98
2022-10-26T05:29:30.722Z,1.85
2022-10-26T05:31:33.379Z,2.40
2022-10-26T05:33:35.997Z,2.10
2022-10-26T05:35:40.461Z,2.40
2022-10-26T05:37:43.041Z,2.40
2022-10-26T05:39:45.817Z,2.00
2022-10-26T05:41:48.528Z,2.38
2022-10-26T05:43:51.207Z,1.90
2022-10-26T05:45:55.130Z,1.95
2022-10-26T05:48:00.183Z,2.30
2022-10-26T05:50:06.097Z,2.00
2022-10-26T05:52:10.064Z,2.08
2022-10-26T05:54:14.066Z,1.70
2022-10-26T05:56:21.599Z,2.20
2022-10-26T05:58:25.274Z,1.63
2022-10-26T06:00:30.417Z,1.70
2022-10-26T06:02:40.254Z,2.10
2022-10-26T06:04:48.046Z,1.60
2022-10-26T06:06:55.324Z,2.25
2022-10-26T06:09:00.024Z,1.88
2022-10-26T06:11:03.311Z,1.90
2022-10-26T06:13:06.571Z,1.80
2022-10-26T06:15:17.274Z,1.75
2022-10-26T06:17:37.055Z,2.17
2022-10-26T06:19:56.316Z,2.03
2022-10-26T06:22:13.214Z,1.92
2022-10-26T06:24:24.533Z,2.17
2022-10-26T06:26:39.760Z,1.63
2022-10-26T06:28:51.193Z,1.67
2022-10-26T06:30:53.915Z,2.08
2022-10-26T06:33:06.001Z,2.03
2022-10-26T06:35:29.163Z,1.90
2022-10-26T06:39:41.008Z,2.88
2022-10-26T06:41:44.306Z,1.98
2022-10-26T06:43:47.694Z,1.88
2022-10-26T06:45:56.061Z,1.83
2022-10-26T06:48:03.361Z,1.83
2022-10-26T06:50:16.414Z,1.80
2022-10-26T06:52:26.400Z,1.80
2022-10-26T06:54:46.716Z,1.77
2022-10-26T06:56:53.271Z,1.70
2022-10-26T07:01:00.128Z,1.48
2022-10-26T07:03:02.827Z,1.67
2022-10-26T07:05:10.090Z,1.63
2022-10-26T07:07:16.565Z,1.63
2022-10-26T07:09:19.515Z,1.60
2022-10-26T07:11:22.346Z,1.90
2022-10-26T07:13:26.532Z,1.60
2022-10-26T07:15:29.150Z,1.90
2022-10-26T07:17:31.956Z,1.70
2022-10-26T07:19:34.594Z,1.52
2022-10-26T07:21:37.234Z,2.30
2022-10-26T07:23:39.866Z,1.98
2022-10-26T07:25:42.706Z,1.83
2022-10-26T07:27:45.380Z,1.50
2022-10-26T07:29:49.347Z,1.75
2022-10-26T07:33:59.929Z,1.73
2022-10-26T07:36:02.825Z,1.55
2022-10-26T07:38:06.112Z,1.60
2022-10-26T07:40:09.673Z,1.73
2022-10-26T07:42:12.406Z,1.70
2022-10-26T07:44:15.106Z,1.83
2022-10-26T07:46:19.332Z,1.95
2022-10-26T07:48:22.096Z,1.45
2022-10-26T07:50:25.172Z,1.60
2022-10-26T07:52:27.896Z,2.10
2022-10-26T07:54:30.935Z,1.90
2022-10-26T07:56:33.621Z,2.22
2022-10-26T07:58:36.407Z,2.10
2022-10-26T08:00:39.114Z,1.88
2022-10-26T08:02:43.170Z,1.63
2022-10-26T08:04:45.828Z,1.65
2022-10-26T08:06:48.799Z,1.67
2022-10-26T08:08:51.771Z,1.83
2022-10-26T08:10:54.484Z,1.50
2022-10-26T08:12:57.165Z,2.80
2022-10-26T08:14:59.833Z,1.85
2022-10-26T08:17:02.540Z,1.90
2022-10-26T08:19:06.638Z,2.22
2022-10-26T08:21:15.560Z,1.90
2022-10-26T08:23:23.983Z,1.80
2022-10-26T08:25:27.041Z,2.00
2022-10-26T08:27:29.883Z,1.98
2022-10-26T08:29:32.596Z,3.17
2022-10-26T08:31:35.502Z,2.25
2022-10-26T08:33:38.636Z,1.85
2022-10-26T08:35:43.290Z,1.67
2022-10-26T08:37:45.950Z,1.58
2022-10-26T08:39:51.922Z,1.83
2022-10-26T08:42:04.210Z,1.70
2022-10-26T08:44:20.686Z,2.05
2022-10-26T08:46:29.139Z,1.90
2022-10-26T08:48:34.992Z,1.70
2022-10-26T08:50:42.968Z,2.00
2022-10-26T08:52:52.000Z,1.75
2022-10-26T08:54:56.955Z,1.90
2022-10-26T08:57:01.922Z,1.60
2022-10-26T08:59:14.654Z,1.73
2022-10-26T09:01:18.484Z,2.03
2022-10-26T09:03:21.277Z,1.83
2022-10-26T09:05:33.464Z,2.25
2022-10-26T09:07:51.856Z,2.08
2022-10-26T09:10:05.372Z,2.03
2022-10-26T09:12:14.609Z,1.80
2022-10-26T09:14:20.870Z,1.60
2022-10-26T09:16:29.849Z,1.95
2022-10-26T09:20:59.736Z,1.95
2022-10-26T09:25:19.250Z,2.40
2022-10-26T09:27:27.859Z,1.88
2022-10-26T09:29:35.573Z,2.10
2022-10-26T09:31:43.426Z,2.35
2022-10-26T09:33:46.452Z,2.10
2022-10-26T09:35:52.576Z,1.95
2022-10-26T09:37:59.216Z,1.90
2022-10-26T09:40:12.654Z,1.80
2022-10-26T09:42:20.175Z,1.88
2022-10-26T09:44:28.826Z,2.05
2022-10-26T09:46:35.995Z,1.92
2022-10-26T09:48:43.700Z,2.10
2022-10-26T09:50:49.636Z,1.83
2022-10-26T09:52:52.335Z,1.80
2022-10-26T09:54:55.250Z,1.65
2022-10-26T09:57:02.068Z,2.25
2022-10-26T09:59:06.964Z,1.95
2022-10-26T10:01:22.498Z,1.63
2022-10-26T10:03:28.004Z,1.92
2022-10-26T10:05:50.824Z,2.13
2022-10-26T10:08:11.970Z,1.80
2022-10-26T10:10:18.162Z,2.00
2022-10-26T10:12:22.701Z,2.03
2022-10-26T10:14:27.287Z,2.00
2022-10-26T10:16:29.943Z,1.48
2022-10-26T10:18:33.287Z,1.70
2022-10-26T10:20:35.985Z,2.00
2022-10-26T10:22:53.528Z,1.92
2022-10-26T10:24:57.920Z,2.00
2022-10-26T10:27:03.483Z,1.88
2022-10-26T10:29:17.334Z,1.88
2022-10-26T10:31:22.077Z,1.83
2022-10-26T10:33:34.394Z,1.77
2022-10-26T10:35:37.399Z,1.92
2022-10-26T10:37:44.124Z,2.22
2022-10-26T10:39:46.819Z,1.63
2022-10-26T10:41:49.611Z,1.50
2022-10-26T10:43:56.185Z,2.00
2022-10-26T10:46:00.923Z,1.95
2022-10-26T10:48:05.964Z,1.58
2022-10-26T10:50:19.610Z,1.90
2022-10-26T10:52:31.177Z,1.60
2022-10-26T10:54:37.063Z,1.77
2022-10-26T10:56:42.998Z,1.35
2022-10-26T10:58:53.991Z,1.67
2022-10-26T11:00:58.562Z,2.00
2022-10-26T11:03:16.716Z,1.60
2022-10-26T11:05:27.754Z,1.42
2022-10-26T11:07:33.654Z,1.70
2022-10-26T11:09:41.215Z,2.00
2022-10-26T11:11:49.807Z,1.70
2022-10-26T11:13:56.221Z,1.70
2022-10-26T11:18:13.500Z,1.60
2022-10-26T11:20:19.972Z,1.70
2022-10-26T11:22:27.375Z,1.60
2022-10-26T11:24:35.182Z,1.55
2022-10-26T11:26:46.051Z,1.67
2022-10-26T11:28:52.813Z,1.48
2022-10-26T11:31:00.128Z,1.55
2022-10-26T11:33:07.835Z,1.88
2022-10-26T11:35:19.020Z,2.00
2022-10-26T11:37:28.887Z,1.90
2022-10-26T11:39:39.773Z,1.80
2022-10-26T11:41:49.428Z,2.28
2022-10-26T11:43:58.295Z,1.70
2022-10-26T11:46:06.996Z,1.20
2022-10-26T11:48:17.902Z,1.40
2022-10-26T11:50:23.795Z,1.50
2022-10-26T11:52:31.436Z,1.80
2022-10-26T11:54:38.545Z,1.77
2022-10-26T11:56:45.268Z,1.60
2022-10-26T11:58:48.262Z,1.60
2022-10-26T12:00:54.447Z,1.80
2022-10-26T12:03:01.486Z,2.00
2022-10-26T12:05:12.303Z,1.58
2022-10-26T12:07:21.523Z,1.77
2022-10-26T12:09:29.980Z,1.58
2022-10-26T12:11:42.440Z,1.55
2022-10-26T12:13:51.811Z,1.33
2022-10-26T12:16:03.917Z,1.55
2022-10-26T12:18:16.130Z,1.38
2022-10-26T12:20:51.801Z,1.52
2022-10-26T12:22:54.725Z,1.50
2022-10-26T12:25:13.925Z,1.40
2022-10-26T12:27:51.117Z,1.30
2022-10-26T12:30:24.361Z,1.58
2022-10-26T12:32:53.680Z,1.63
2022-10-26T12:35:02.675Z,1.55
2022-10-26T12:37:24.427Z,1.50
2022-10-26T12:39:32.109Z,2.13
2022-10-26T12:41:39.170Z,1.20
2022-10-26T12:43:42.595Z,1.20
2022-10-26T12:45:46.766Z,1.20
2022-10-26T12:48:10.679Z,1.60
2022-10-26T12:50:25.126Z,1.77
2022-10-26T12:52:40.077Z,1.40
2022-10-26T12:54:55.862Z,1.70
2022-10-26T12:57:09.726Z,1.65
2022-10-26T12:59:27.720Z,1.60
2022-10-26T13:02:14.441Z,1.58
2022-10-26T13:04:50.218Z,1.58
2022-10-26T13:07:19.108Z,1.50
2022-10-26T13:09:26.450Z,1.23
2022-10-26T13:11:32.625Z,1.30
2022-10-26T13:13:36.729Z,1.52
2022-10-26T13:15:41.356Z,1.33
2022-10-26T13:17:53.835Z,1.23
2022-10-26T13:19:58.595Z,1.85
2022-10-26T13:22:01.575Z,1.30
2022-10-26T13:24:07.845Z,1.40
2022-10-26T13:28:32.712Z,2.00
2022-10-26T13:30:47.360Z,1.85
2022-10-26T13:32:53.141Z,1.60
2022-10-26T13:34:57.795Z,1.77
2022-10-26T13:37:18.627Z,1.55
2022-10-26T13:39:25.173Z,1.60
2022-10-26T13:41:35.587Z,1.95
2022-10-26T13:43:38.824Z,1.27
2022-10-26T13:45:51.507Z,1.67
2022-10-26T13:47:59.968Z,1.33
2022-10-26T13:50:08.291Z,1.70
2022-10-26T13:52:17.921Z,1.58
2022-10-26T13:54:26.430Z,1.42
2022-10-26T13:56:34.403Z,1.75
2022-10-26T13:58:43.988Z,1.40
2022-10-26T14:01:12.977Z,1.70
2022-10-26T14:03:21.218Z,1.42
2022-10-26T14:05:24.865Z,1.50
2022-10-26T14:07:35.213Z,1.70
2022-10-26T14:09:37.876Z,1.77
2022-10-26T14:11:49.471Z,1.40
2022-10-26T14:13:52.950Z,1.95
2022-10-26T14:15:58.046Z,2.00
2022-10-26T14:18:02.727Z,2.05
2022-10-26T14:20:06.210Z,1.73
2022-10-26T14:22:09.008Z,1.60
2022-10-26T14:24:27.514Z,1.30
2022-10-26T14:26:40.442Z,1.55
2022-10-26T14:28:51.522Z,1.80
2022-10-26T14:30:54.528Z,1.35
2022-10-26T14:32:57.880Z,1.58
2022-10-26T14:35:00.735Z,2.00
2022-10-26T14:37:05.852Z,1.42
2022-10-26T14:39:16.161Z,1.00
2022-10-26T14:41:19.134Z,1.60
2022-10-26T14:43:24.637Z,1.58
2022-10-26T14:45:48.049Z,1.33
2022-10-26T14:47:51.644Z,1.38
2022-10-26T14:49:54.744Z,1.75
2022-10-26T14:51:58.931Z,1.35
2022-10-26T14:54:02.838Z,1.40
2022-10-26T14:56:07.358Z,1.65
2022-10-26T14:58:18.106Z,1.45
2022-10-26T15:00:22.540Z,1.60
2022-10-26T15:02:26.970Z,1.42
2022-10-26T15:04:32.697Z,1.52
2022-10-26T15:06:42.326Z,1.48
2022-10-26T15:08:55.845Z,1.70
2022-10-26T15:11:07.634Z,2.17
2022-10-26T15:13:10.613Z,1.30
2022-10-26T15:17:32.006Z,1.70
2022-10-26T15:19:35.962Z,1.35
2022-10-26T15:21:41.049Z,1.40
2022-10-26T15:23:43.721Z,1.52
2022-10-26T15:25:53.423Z,1.38
2022-10-26T15:27:56.184Z,1.45
2022-10-26T15:30:16.031Z,1.70
2022-10-26T15:32:37.913Z,1.60
2022-10-26T15:34:40.617Z,1.50
2022-10-26T15:36:44.368Z,1.40
2022-10-26T15:38:48.501Z,1.20
2022-10-26T15:40:51.183Z,2.10
2022-10-26T15:42:55.216Z,1.55
2022-10-26T15:44:58.753Z,1.95
2022-10-26T15:47:07.794Z,1.75
2022-10-26T15:49:18.362Z,1.52
2022-10-26T15:51:21.011Z,1.65
2022-10-26T15:53:27.419Z,1.50
2022-10-26T15:57:33.535Z,2.03
2022-10-26T15:59:36.138Z,1.30
2022-10-26T16:01:38.812Z,1.20
2022-10-26T16:03:41.476Z,1.83
2022-10-26T16:05:45.878Z,1.58
2022-10-26T16:07:49.610Z,1.50
2022-10-26T16:09:52.527Z,1.80
2022-10-26T16:11:55.141Z,1.88
2022-10-26T16:14:01.036Z,1.50
2022-10-26T16:16:12.294Z,1.73
2022-10-26T16:18:15.601Z,1.60
2022-10-26T16:20:20.295Z,1.77
2022-10-26T16:22:24.611Z,1.92
2022-10-26T16:24:27.628Z,1.88
2022-10-26T16:26:30.263Z,1.38
2022-10-26T16:28:33.394Z,2.10
2022-10-26T16:30:36.872Z,1.80
2022-10-26T16:32:39.884Z,2.25
2022-10-26T16:34:42.508Z,2.47
2022-10-26T16:36:45.921Z,1.95
2022-10-26T16:38:50.088Z,2.03
2022-10-26T16:41:00.958Z,3.78
2022-10-26T16:43:03.956Z,2.58
2022-10-26T16:45:07.432Z,2.67
2022-10-26T16:47:10.168Z,2.47
2022-10-26T16:49:12.790Z,2.20
2022-10-26T16:51:17.396Z,2.30
2022-10-26T16:53:20.103Z,2.38
2022-10-26T16:55:24.516Z,2.15
2022-10-26T16:57:27.328Z,2.17
2022-10-26T16:59:30.257Z,1.98
2022-10-26T17:01:33.484Z,1.80
2022-10-26T17:03:36.198Z,1.83
2022-10-26T17:05:38.922Z,2.05
2022-10-26T17:07:41.557Z,2.40
2022-10-26T17:09:44.275Z,2.30
2022-10-26T17:11:48.268Z,2.25
2022-10-26T17:13:54.952Z,2.50
2022-10-26T17:16:02.418Z,2.10
2022-10-26T17:18:05.363Z,2.00
2022-10-26T17:20:09.208Z,2.10
2022-10-26T17:22:11.832Z,1.60
2022-10-26T17:24:14.525Z,2.05
2022-10-26T17:26:17.248Z,2.00
2022-10-26T17:28:21.298Z,2.20
2022-10-26T17:30:23.933Z,1.60
2022-10-26T17:32:26.538Z,1.80
2022-10-26T17:34:29.156Z,1.98
2022-10-26T17:36:31.836Z,2.17
2022-10-26T17:38:36.422Z,2.20
2022-10-26T17:40:39.043Z,2.00
2022-10-26T17:42:41.659Z,2.42
2022-10-26T17:44:45.604Z,2.20
2022-10-26T17:46:48.247Z,2.78
2022-10-26T17:48:54.699Z,2.22
2022-10-26T17:53:01.799Z,2.50
2022-10-26T17:55:04.951Z,2.38
2022-10-26T17:57:07.538Z,2.90
2022-10-26T17:59:13.283Z,3.42
2022-10-26T18:01:17.291Z,3.08
2022-10-26T18:03:19.961Z,2.55
2022-10-26T18:05:22.607Z,2.80
2022-10-26T18:07:25.266Z,3.05
2022-10-26T18:09:27.857Z,3.28
2022-10-26T18:13:35.182Z,2.88
2022-10-26T18:15:37.893Z,3.17
2022-10-26T18:17:42.144Z,2.97
2022-10-26T18:19:44.834Z,3.40
2022-10-26T18:21:47.497Z,2.67
2022-10-26T18:23:50.123Z,3.40
2022-10-26T18:26:01.132Z,3.10
2022-10-26T18:28:04.443Z,3.00
2022-10-26T18:30:08.576Z,2.88
2022-10-26T18:32:11.179Z,2.60
2022-10-26T18:34:15.136Z,2.80
2022-10-26T18:36:19.329Z,3.00
2022-10-26T18:38:21.894Z,2.28
2022-10-26T18:40:24.489Z,2.50
2022-10-26T18:42:27.362Z,2.83
2022-10-26T18:44:29.948Z,3.00
2022-10-26T18:46:35.402Z,3.03
2022-10-26T18:48:38.412Z,2.53
2022-10-26T18:50:42.462Z,2.88
2022-10-26T18:52:45.670Z,4.45
2022-10-26T18:54:48.237Z,4.38
2022-10-26T18:56:50.901Z,3.70
2022-10-26T18:58:55.905Z,4.15
2022-10-26T19:01:07.108Z,3.40
2022-10-26T19:03:10.822Z,2.53
2022-10-26T19:05:13.479Z,2.28
2022-10-26T19:07:17.876Z,2.28
2022-10-26T19:09:20.886Z,1.95
2022-10-26T19:11:25.620Z,2.40
2022-10-26T19:13:28.220Z,2.65
2022-10-26T19:15:30.840Z,2.35
2022-10-26T19:17:33.482Z,2.50
2022-10-26T19:19:36.064Z,2.60
2022-10-26T19:21:38.725Z,2.53
2022-10-26T19:23:45.058Z,1.95
2022-10-26T19:25:47.622Z,2.38
2022-10-26T19:27:51.546Z,2.10
2022-10-26T19:29:54.438Z,4.10
2022-10-26T19:31:57.049Z,4.03
2022-10-26T19:34:00.119Z,2.75
2022-10-26T19:36:04.379Z,2.80
2022-10-26T19:38:06.991Z,2.10
2022-10-26T19:40:12.114Z,1.98
2022-10-26T19:42:15.512Z,2.92
2022-10-26T19:44:23.122Z,3.10
2022-10-26T19:46:29.662Z,3.00
2022-10-26T19:48:33.109Z,3.55
2022-10-26T19:50:35.746Z,3.20
2022-10-26T19:52:38.377Z,3.17
2022-10-26T19:54:40.986Z,3.08
2022-10-26T19:56:44.972Z,3.28
2022-10-26T19:58:50.522Z,3.17
2022-10-26T20:03:04.839Z,3.28
2022-10-26T20:05:07.820Z,3.38
2022-10-26T20:07:10.447Z,2.65
2022-10-26T20:09:13.098Z,3.40
2022-10-26T20:11:17.099Z,3.17
2022-10-26T20:13:21.273Z,2.80
2022-10-26T20:15:24.102Z,3.80
2022-10-26T20:17:28.532Z,3.50
2022-10-26T20:19:31.376Z,3.03
2022-10-26T20:21:34.050Z,3.15
2022-10-26T20:23:36.690Z,3.00
2022-10-26T20:25:40.881Z,2.97
2022-10-26T20:27:43.497Z,3.45
2022-10-26T20:29:47.570Z,3.10
2022-10-26T20:31:55.135Z,2.95
2022-10-26T20:33:58.585Z,3.05
2022-10-26T20:36:01.755Z,3.85
2022-10-26T20:38:05.404Z,3.20
2022-10-26T20:40:11.859Z,3.28
2022-10-26T20:42:23.410Z,3.30
2022-10-26T20:44:30.093Z,4.22
2022-10-26T20:48:38.504Z,2.85
2022-10-26T20:50:42.265Z,3.22
2022-10-26T20:52:49.854Z,3.00
2022-10-26T20:54:59.895Z,3.20
2022-10-26T20:57:03.884Z,3.65
2022-10-26T20:59:13.024Z,3.75
2022-10-26T21:01:22.254Z,3.28
2022-10-26T21:03:26.601Z,3.38
2022-10-26T21:05:33.952Z,3.55
2022-10-26T21:07:37.445Z,4.55
2022-10-26T21:09:40.052Z,3.70
2022-10-26T21:11:42.693Z,4.53
2022-10-26T21:13:47.198Z,4.30
2022-10-26T21:15:50.124Z,3.92
2022-10-26T21:17:53.334Z,3.75
2022-10-26T21:19:57.327Z,4.72
2022-10-26T21:22:00.204Z,3.47
2022-10-26T21:24:02.807Z,4.10
2022-10-26T21:26:05.945Z,3.65
2022-10-26T21:28:08.564Z,3.55
2022-10-26T21:30:12.393Z,3.70
2022-10-26T21:32:14.944Z,3.67
2022-10-26T21:34:17.525Z,4.07
2022-10-26T21:36:22.017Z,3.72
2022-10-26T21:38:24.617Z,4.03
2022-10-26T21:40:27.272Z,3.67
2022-10-26T21:42:30.004Z,3.88
2022-10-26T21:44:40.819Z,3.45
2022-10-26T21:46:44.322Z,4.10
2022-10-26T21:48:47.831Z,4.78
2022-10-26T21:50:50.378Z,4.38
2022-10-26T21:52:55.006Z,4.40
2022-10-26T21:54:57.607Z,5.10
2022-10-26T21:57:00.257Z,4.38
2022-10-26T21:59:02.845Z,3.88
2022-10-26T22:01:06.768Z,3.55
2022-10-26T22:03:09.449Z,3.95
2022-10-26T22:05:12.065Z,3.50
2022-10-26T22:07:14.744Z,3.83
2022-10-26T22:09:18.706Z,3.80
2022-10-26T22:11:23.915Z,3.75
2022-10-26T22:13:26.517Z,4.15
2022-10-26T22:15:29.104Z,3.80
2022-10-26T22:17:31.688Z,3.97
2022-10-26T22:19:34.597Z,4.00
2022-10-26T22:21:39.423Z,4.10
2022-10-26T22:23:43.672Z,3.78
2022-10-26T22:25:47.592Z,3.83
2022-10-26T22:27:50.334Z,4.00
2022-10-26T22:29:53.179Z,4.05
2022-10-26T22:31:55.740Z,4.35
2022-10-26T22:34:02.073Z,4.28
2022-10-26T22:36:09.246Z,3.55
2022-10-26T22:38:11.784Z,4.18
2022-10-26T22:40:14.515Z,5.50
2022-10-26T22:42:18.450Z,6.13
2022-10-26T22:44:21.024Z,4.90
2022-10-26T22:46:25.976Z,4.90
2022-10-26T22:48:29.028Z,4.63
2022-10-26T22:50:31.659Z,6.22
2022-10-26T22:52:34.980Z,6.15
2022-10-26T22:54:37.646Z,4.93
2022-10-26T22:56:40.506Z,5.40
2022-10-26T22:58:44.423Z,5.32
2022-10-26T23:00:47.033Z,4.55
2022-10-26T23:02:49.674Z,4.75
2022-10-26T23:04:52.261Z,4.55
2022-10-26T23:06:54.830Z,5.03
2022-10-26T23:08:57.566Z,5.10
2022-10-26T23:11:01.206Z,4.90
2022-10-26T23:15:12.959Z,4.45
2022-10-26T23:17:15.567Z,4.72
2022-10-26T23:19:18.181Z,5.20
2022-10-26T23:21:21.512Z,4.35
2022-10-26T23:23:24.177Z,5.30
2022-10-26T23:25:26.831Z,4.63
2022-10-26T23:27:29.424Z,5.03
2022-10-26T23:29:32.049Z,4.72
2022-10-26T23:31:36.044Z,4.43
2022-10-26T23:33:38.652Z,4.55
2022-10-26T23:35:41.488Z,4.13
2022-10-26T23:37:44.078Z,4.25
2022-10-26T23:39:46.716Z,4.35
2022-10-26T23:41:49.319Z,4.70
2022-10-26T23:43:52.177Z,4.43
2022-10-26T23:45:55.686Z,4.40
2022-10-26T23:47:59.643Z,3.95
2022-10-26T23:50:02.285Z,4.35
2022-10-26T23:52:05.041Z,4.55
2022-10-26T23:54:07.924Z,4.43
2022-10-26T23:56:10.509Z,4.05
2022-10-26T23:58:13.318Z,4.43
